sensor_id;sensor_type;location;lat;lon;timestamp;P1;durP1;ratioP1;P2;durP2;ratioP2
8474;SDS011;4274;52.012;8.448;2023-12-20T00:02:16;46.87;;;8.37;;
8474;SDS011;4274;52.012;8.448;2023-12-20T00:04:41;67.60;;;10.07;;
8474;SDS011;4274;52.012;8.448;2023-12-20T00:07:07;51.27;;;8.37;;
8474;SDS011;4274;52.012;8.448;2023-12-20T00:09:32;46.80;;;7.87;;
8474;SDS011;4274;52.012;8.448;2023-12-20T00:11:58;53.27;;;8.00;;
8474;SDS011;4274;52.012;8.448;2023-12-20T00:14:24;51.07;;;8.33;;
8474;SDS011;4274;52.012;8.448;2023-12-20T00:16:49;47.93;;;7.00;;
8474;SDS011;4274;52.012;8.448;2023-12-20T00:19:15;46.97;;;6.83;;
8474;SDS011;4274;52.012;8.448;2023-12-20T00:21:40;47.60;;;7.17;;
8474;SDS011;4274;52.012;8.448;2023-12-20T00:24:06;53.53;;;8.13;;
8474;SDS011;4274;52.012;8.448;2023-12-20T00:26:31;50.30;;;8.07;;
8474;SDS011;4274;52.012;8.448;2023-12-20T00:28:57;50.40;;;9.37;;
8474;SDS011;4274;52.012;8.448;2023-12-20T00:31:22;48.77;;;8.00;;
8474;SDS011;4274;52.012;8.448;2023-12-20T00:33:48;50.10;;;10.00;;
8474;SDS011;4274;52.012;8.448;2023-12-20T00:36:13;50.07;;;9.03;;
8474;SDS011;4274;52.012;8.448;2023-12-20T00:38:39;47.70;;;9.27;;
8474;SDS011;4274;52.012;8.448;2023-12-20T00:41:04;46.53;;;8.40;;
8474;SDS011;4274;52.012;8.448;2023-12-20T00:43:30;50.47;;;7.60;;
8474;SDS011;4274;52.012;8.448;2023-12-20T00:45:55;51.13;;;8.50;;
8474;SDS011;4274;52.012;8.448;2023-12-20T00:48:22;54.47;;;10.00;;
8474;SDS011;4274;52.012;8.448;2023-12-20T00:50:47;45.57;;;7.67;;
8474;SDS011;4274;52.012;8.448;2023-12-20T00:53:13;48.00;;;7.30;;
8474;SDS011;4274;52.012;8.448;2023-12-20T00:55:38;47.53;;;7.63;;
8474;SDS011;4274;52.012;8.448;2023-12-20T00:58:05;43.80;;;6.83;;
8474;SDS011;4274;52.012;8.448;2023-12-20T01:00:31;54.43;;;7.77;;
8474;SDS011;4274;52.012;8.448;2023-12-20T01:02:56;52.60;;;7.67;;
8474;SDS011;4274;52.012;8.448;2023-12-20T01:05:22;51.53;;;6.67;;
8474;SDS011;4274;52.012;8.448;2023-12-20T01:07:48;53.53;;;7.70;;
8474;SDS011;4274;52.012;8.448;2023-12-20T01:10:14;43.80;;;6.00;;
8474;SDS011;4274;52.012;8.448;2023-12-20T01:12:40;50.00;;;6.70;;
8474;SDS011;4274;52.012;8.448;2023-12-20T01:15:05;42.60;;;6.03;;
8474;SDS011;4274;52.012;8.448;2023-12-20T01:17:31;46.90;;;6.53;;
8474;SDS011;4274;52.012;8.448;2023-12-20T01:19:57;46.13;;;7.13;;
8474;SDS011;4274;52.012;8.448;2023-12-20T01:22:23;45.60;;;6.73;;
8474;SDS011;4274;52.012;8.448;2023-12-20T01:24:48;42.07;;;5.40;;
8474;SDS011;4274;52.012;8.448;2023-12-20T01:27:14;59.03;;;6.00;;
8474;SDS011;4274;52.012;8.448;2023-12-20T01:29:40;48.80;;;5.90;;
8474;SDS011;4274;52.012;8.448;2023-12-20T01:32:05;45.40;;;5.33;;
8474;SDS011;4274;52.012;8.448;2023-12-20T01:34:31;48.00;;;5.73;;
8474;SDS011;4274;52.012;8.448;2023-12-20T01:36:57;41.70;;;5.10;;
8474;SDS011;4274;52.012;8.448;2023-12-20T01:39:22;45.70;;;5.63;;
8474;SDS011;4274;52.012;8.448;2023-12-20T01:41:48;48.80;;;6.57;;
8474;SDS011;4274;52.012;8.448;2023-12-20T01:44:14;50.80;;;6.70;;
8474;SDS011;4274;52.012;8.448;2023-12-20T01:46:39;40.80;;;4.63;;
8474;SDS011;4274;52.012;8.448;2023-12-20T01:49:06;50.60;;;5.63;;
8474;SDS011;4274;52.012;8.448;2023-12-20T01:51:33;50.80;;;5.20;;
8474;SDS011;4274;52.012;8.448;2023-12-20T01:53:59;58.70;;;6.20;;
8474;SDS011;4274;52.012;8.448;2023-12-20T01:56:25;51.00;;;5.80;;
8474;SDS011;4274;52.012;8.448;2023-12-20T01:58:53;45.90;;;4.90;;
8474;SDS011;4274;52.012;8.448;2023-12-20T02:01:20;42.97;;;4.97;;
8474;SDS011;4274;52.012;8.448;2023-12-20T02:03:46;45.13;;;5.43;;
8474;SDS011;4274;52.012;8.448;2023-12-20T02:06:12;44.77;;;5.87;;
8474;SDS011;4274;52.012;8.448;2023-12-20T02:08:38;44.67;;;4.63;;
8474;SDS011;4274;52.012;8.448;2023-12-20T02:11:04;46.23;;;5.20;;
8474;SDS011;4274;52.012;8.448;2023-12-20T02:13:30;41.67;;;4.40;;
8474;SDS011;4274;52.012;8.448;2023-12-20T02:15:56;44.50;;;4.00;;
8474;SDS011;4274;52.012;8.448;2023-12-20T02:18:22;45.17;;;5.10;;
8474;SDS011;4274;52.012;8.448;2023-12-20T02:20:47;51.70;;;5.13;;
8474;SDS011;4274;52.012;8.448;2023-12-20T02:23:13;43.43;;;4.33;;
8474;SDS011;4274;52.012;8.448;2023-12-20T02:25:39;42.90;;;4.97;;
8474;SDS011;4274;52.012;8.448;2023-12-20T02:28:05;44.27;;;4.00;;
8474;SDS011;4274;52.012;8.448;2023-12-20T02:30:31;44.00;;;5.20;;
8474;SDS011;4274;52.012;8.448;2023-12-20T02:32:56;41.07;;;4.27;;
8474;SDS011;4274;52.012;8.448;2023-12-20T02:35:24;46.57;;;4.50;;
8474;SDS011;4274;52.012;8.448;2023-12-20T02:37:50;48.07;;;5.10;;
8474;SDS011;4274;52.012;8.448;2023-12-20T02:40:15;43.63;;;4.40;;
8474;SDS011;4274;52.012;8.448;2023-12-20T02:42:41;45.80;;;4.67;;
8474;SDS011;4274;52.012;8.448;2023-12-20T02:45:07;51.73;;;4.67;;
8474;SDS011;4274;52.012;8.448;2023-12-20T02:47:32;46.47;;;4.80;;
8474;SDS011;4274;52.012;8.448;2023-12-20T02:49:58;43.00;;;4.23;;
8474;SDS011;4274;52.012;8.448;2023-12-20T02:52:24;51.20;;;4.60;;
8474;SDS011;4274;52.012;8.448;2023-12-20T02:54:50;41.53;;;4.53;;
8474;SDS011;4274;52.012;8.448;2023-12-20T02:57:16;45.60;;;5.07;;
8474;SDS011;4274;52.012;8.448;2023-12-20T02:59:42;46.97;;;4.53;;
8474;SDS011;4274;52.012;8.448;2023-12-20T03:02:07;41.17;;;4.50;;
8474;SDS011;4274;52.012;8.448;2023-12-20T03:04:33;72.43;;;6.50;;
8474;SDS011;4274;52.012;8.448;2023-12-20T03:06:58;46.07;;;4.93;;
8474;SDS011;4274;52.012;8.448;2023-12-20T03:09:24;41.87;;;5.10;;
8474;SDS011;4274;52.012;8.448;2023-12-20T03:11:49;54.73;;;5.10;;
8474;SDS011;4274;52.012;8.448;2023-12-20T03:14:15;50.73;;;4.53;;
8474;SDS011;4274;52.012;8.448;2023-12-20T03:16:40;52.47;;;5.40;;
8474;SDS011;4274;52.012;8.448;2023-12-20T03:19:06;50.87;;;6.40;;
8474;SDS011;4274;52.012;8.448;2023-12-20T03:21:31;43.27;;;5.73;;
8474;SDS011;4274;52.012;8.448;2023-12-20T03:23:57;50.33;;;7.93;;
8474;SDS011;4274;52.012;8.448;2023-12-20T03:26:23;50.20;;;6.20;;
8474;SDS011;4274;52.012;8.448;2023-12-20T03:28:48;41.80;;;5.37;;
8474;SDS011;4274;52.012;8.448;2023-12-20T03:31:14;50.80;;;7.37;;
8474;SDS011;4274;52.012;8.448;2023-12-20T03:33:39;53.60;;;7.47;;
8474;SDS011;4274;52.012;8.448;2023-12-20T03:36:05;48.83;;;6.90;;
8474;SDS011;4274;52.012;8.448;2023-12-20T03:38:31;51.63;;;5.70;;
8474;SDS011;4274;52.012;8.448;2023-12-20T03:40:56;51.23;;;6.77;;
8474;SDS011;4274;52.012;8.448;2023-12-20T03:43:22;44.63;;;6.90;;
8474;SDS011;4274;52.012;8.448;2023-12-20T03:45:47;46.50;;;6.93;;
8474;SDS011;4274;52.012;8.448;2023-12-20T03:48:13;57.83;;;8.97;;
8474;SDS011;4274;52.012;8.448;2023-12-20T03:50:39;47.93;;;6.90;;
8474;SDS011;4274;52.012;8.448;2023-12-20T03:53:04;48.63;;;6.60;;
8474;SDS011;4274;52.012;8.448;2023-12-20T03:55:30;51.53;;;7.13;;
8474;SDS011;4274;52.012;8.448;2023-12-20T03:57:55;44.90;;;6.67;;
8474;SDS011;4274;52.012;8.448;2023-12-20T04:00:21;57.47;;;7.17;;
8474;SDS011;4274;52.012;8.448;2023-12-20T04:02:46;49.37;;;6.67;;
8474;SDS011;4274;52.012;8.448;2023-12-20T04:05:12;46.23;;;7.03;;
8474;SDS011;4274;52.012;8.448;2023-12-20T04:07:38;48.03;;;6.90;;
8474;SDS011;4274;52.012;8.448;2023-12-20T04:10:04;52.40;;;7.30;;
8474;SDS011;4274;52.012;8.448;2023-12-20T04:12:30;49.60;;;7.13;;
8474;SDS011;4274;52.012;8.448;2023-12-20T04:14:56;44.77;;;6.47;;
8474;SDS011;4274;52.012;8.448;2023-12-20T04:17:22;50.77;;;7.70;;
8474;SDS011;4274;52.012;8.448;2023-12-20T04:19:48;55.67;;;7.97;;
8474;SDS011;4274;52.012;8.448;2023-12-20T04:22:14;44.03;;;6.50;;
8474;SDS011;4274;52.012;8.448;2023-12-20T04:24:40;53.03;;;6.53;;
8474;SDS011;4274;52.012;8.448;2023-12-20T04:27:07;60.63;;;7.33;;
8474;SDS011;4274;52.012;8.448;2023-12-20T04:29:33;56.60;;;6.73;;
8474;SDS011;4274;52.012;8.448;2023-12-20T04:31:59;46.93;;;6.10;;
8474;SDS011;4274;52.012;8.448;2023-12-20T04:34:25;58.77;;;7.10;;
8474;SDS011;4274;52.012;8.448;2023-12-20T04:36:50;53.23;;;8.20;;
8474;SDS011;4274;52.012;8.448;2023-12-20T04:39:16;44.53;;;6.00;;
8474;SDS011;4274;52.012;8.448;2023-12-20T04:41:42;51.97;;;6.63;;
8474;SDS011;4274;52.012;8.448;2023-12-20T04:44:07;74.00;;;7.87;;
8474;SDS011;4274;52.012;8.448;2023-12-20T04:46:33;55.87;;;6.97;;
8474;SDS011;4274;52.012;8.448;2023-12-20T04:48:58;55.37;;;6.80;;
8474;SDS011;4274;52.012;8.448;2023-12-20T04:51:24;50.23;;;6.17;;
8474;SDS011;4274;52.012;8.448;2023-12-20T04:53:49;48.43;;;6.07;;
8474;SDS011;4274;52.012;8.448;2023-12-20T04:56:15;46.37;;;6.20;;
8474;SDS011;4274;52.012;8.448;2023-12-20T04:58:42;55.43;;;7.70;;
8474;SDS011;4274;52.012;8.448;2023-12-20T05:01:08;48.77;;;5.30;;
8474;SDS011;4274;52.012;8.448;2023-12-20T05:03:34;57.43;;;5.90;;
8474;SDS011;4274;52.012;8.448;2023-12-20T05:05:59;51.13;;;8.07;;
8474;SDS011;4274;52.012;8.448;2023-12-20T05:08:25;53.53;;;5.63;;
8474;SDS011;4274;52.012;8.448;2023-12-20T05:10:51;47.30;;;6.63;;
8474;SDS011;4274;52.012;8.448;2023-12-20T05:13:18;47.10;;;5.63;;
8474;SDS011;4274;52.012;8.448;2023-12-20T05:15:44;48.57;;;5.33;;
8474;SDS011;4274;52.012;8.448;2023-12-20T05:18:10;52.70;;;6.47;;
8474;SDS011;4274;52.012;8.448;2023-12-20T05:20:35;53.10;;;6.00;;
8474;SDS011;4274;52.012;8.448;2023-12-20T05:23:01;50.23;;;5.80;;
8474;SDS011;4274;52.012;8.448;2023-12-20T05:25:26;51.47;;;5.90;;
8474;SDS011;4274;52.012;8.448;2023-12-20T05:27:52;62.63;;;6.10;;
8474;SDS011;4274;52.012;8.448;2023-12-20T05:30:18;49.10;;;6.30;;
8474;SDS011;4274;52.012;8.448;2023-12-20T05:32:43;50.50;;;6.37;;
8474;SDS011;4274;52.012;8.448;2023-12-20T05:35:09;64.33;;;8.20;;
8474;SDS011;4274;52.012;8.448;2023-12-20T05:37:34;55.40;;;5.93;;
8474;SDS011;4274;52.012;8.448;2023-12-20T05:40:00;59.17;;;6.30;;
8474;SDS011;4274;52.012;8.448;2023-12-20T05:42:25;55.63;;;6.83;;
8474;SDS011;4274;52.012;8.448;2023-12-20T05:44:51;52.40;;;6.70;;
8474;SDS011;4274;52.012;8.448;2023-12-20T05:47:16;47.50;;;5.93;;
8474;SDS011;4274;52.012;8.448;2023-12-20T05:49:42;59.37;;;6.90;;
8474;SDS011;4274;52.012;8.448;2023-12-20T05:52:09;46.03;;;7.40;;
8474;SDS011;4274;52.012;8.448;2023-12-20T05:54:34;50.73;;;7.00;;
8474;SDS011;4274;52.012;8.448;2023-12-20T05:57:00;51.83;;;6.20;;
8474;SDS011;4274;52.012;8.448;2023-12-20T05:59:26;62.20;;;8.20;;
8474;SDS011;4274;52.012;8.448;2023-12-20T06:01:51;60.23;;;6.30;;
8474;SDS011;4274;52.012;8.448;2023-12-20T06:04:17;51.80;;;6.80;;
8474;SDS011;4274;52.012;8.448;2023-12-20T06:06:42;48.77;;;6.07;;
8474;SDS011;4274;52.012;8.448;2023-12-20T06:09:08;52.50;;;7.57;;
8474;SDS011;4274;52.012;8.448;2023-12-20T06:11:34;68.60;;;7.10;;
8474;SDS011;4274;52.012;8.448;2023-12-20T06:14:00;51.50;;;6.40;;
8474;SDS011;4274;52.012;8.448;2023-12-20T06:16:25;48.00;;;6.60;;
8474;SDS011;4274;52.012;8.448;2023-12-20T06:18:51;64.87;;;7.30;;
8474;SDS011;4274;52.012;8.448;2023-12-20T06:21:16;56.33;;;7.00;;
8474;SDS011;4274;52.012;8.448;2023-12-20T06:23:42;47.90;;;7.30;;
8474;SDS011;4274;52.012;8.448;2023-12-20T06:26:07;57.90;;;8.70;;
8474;SDS011;4274;52.012;8.448;2023-12-20T06:28:33;56.23;;;7.33;;
8474;SDS011;4274;52.012;8.448;2023-12-20T06:30:58;60.40;;;6.90;;
8474;SDS011;4274;52.012;8.448;2023-12-20T06:33:25;47.67;;;7.13;;
8474;SDS011;4274;52.012;8.448;2023-12-20T06:35:51;56.73;;;7.50;;
8474;SDS011;4274;52.012;8.448;2023-12-20T06:38:17;46.67;;;6.73;;
8474;SDS011;4274;52.012;8.448;2023-12-20T06:40:43;50.60;;;7.43;;
8474;SDS011;4274;52.012;8.448;2023-12-20T06:43:09;54.50;;;7.07;;
8474;SDS011;4274;52.012;8.448;2023-12-20T06:45:34;50.40;;;6.60;;
8474;SDS011;4274;52.012;8.448;2023-12-20T06:48:00;52.20;;;7.43;;
8474;SDS011;4274;52.012;8.448;2023-12-20T06:50:26;55.07;;;7.90;;
8474;SDS011;4274;52.012;8.448;2023-12-20T06:52:51;54.70;;;6.10;;
8474;SDS011;4274;52.012;8.448;2023-12-20T06:55:17;67.43;;;8.30;;
8474;SDS011;4274;52.012;8.448;2023-12-20T06:57:43;61.87;;;6.97;;
8474;SDS011;4274;52.012;8.448;2023-12-20T07:00:10;59.90;;;7.37;;
8474;SDS011;4274;52.012;8.448;2023-12-20T07:02:36;46.17;;;6.80;;
8474;SDS011;4274;52.012;8.448;2023-12-20T07:05:02;54.40;;;7.13;;
8474;SDS011;4274;52.012;8.448;2023-12-20T07:07:28;51.33;;;6.03;;
8474;SDS011;4274;52.012;8.448;2023-12-20T07:09:53;51.30;;;7.40;;
8474;SDS011;4274;52.012;8.448;2023-12-20T07:12:19;55.80;;;6.17;;
8474;SDS011;4274;52.012;8.448;2023-12-20T07:14:45;45.57;;;5.97;;
8474;SDS011;4274;52.012;8.448;2023-12-20T07:17:11;44.93;;;5.90;;
8474;SDS011;4274;52.012;8.448;2023-12-20T07:19:38;48.93;;;6.90;;
8474;SDS011;4274;52.012;8.448;2023-12-20T07:22:05;46.53;;;6.10;;
8474;SDS011;4274;52.012;8.448;2023-12-20T07:24:31;57.40;;;7.00;;
8474;SDS011;4274;52.012;8.448;2023-12-20T07:26:57;55.57;;;6.47;;
8474;SDS011;4274;52.012;8.448;2023-12-20T07:29:24;67.13;;;6.37;;
8474;SDS011;4274;52.012;8.448;2023-12-20T07:31:50;52.07;;;6.33;;
8474;SDS011;4274;52.012;8.448;2023-12-20T07:34:17;68.33;;;6.70;;
8474;SDS011;4274;52.012;8.448;2023-12-20T07:36:42;49.13;;;6.10;;
8474;SDS011;4274;52.012;8.448;2023-12-20T07:39:08;52.33;;;5.60;;
8474;SDS011;4274;52.012;8.448;2023-12-20T07:41:33;53.77;;;6.63;;
8474;SDS011;4274;52.012;8.448;2023-12-20T07:43:59;53.40;;;5.90;;
8474;SDS011;4274;52.012;8.448;2023-12-20T07:46:25;57.50;;;6.37;;
8474;SDS011;4274;52.012;8.448;2023-12-20T07:48:50;60.37;;;7.30;;
8474;SDS011;4274;52.012;8.448;2023-12-20T07:51:16;47.63;;;5.87;;
8474;SDS011;4274;52.012;8.448;2023-12-20T07:53:42;54.20;;;6.17;;
8474;SDS011;4274;52.012;8.448;2023-12-20T07:56:14;51.60;;;6.07;;
8474;SDS011;4274;52.012;8.448;2023-12-20T07:58:44;49.77;;;5.03;;
8474;SDS011;4274;52.012;8.448;2023-12-20T08:01:10;59.83;;;5.13;;
8474;SDS011;4274;52.012;8.448;2023-12-20T08:03:37;52.47;;;5.77;;
8474;SDS011;4274;52.012;8.448;2023-12-20T08:06:03;59.87;;;6.07;;
8474;SDS011;4274;52.012;8.448;2023-12-20T08:08:29;47.03;;;5.57;;
8474;SDS011;4274;52.012;8.448;2023-12-20T08:10:55;48.47;;;5.03;;
8474;SDS011;4274;52.012;8.448;2023-12-20T08:13:22;59.70;;;7.53;;
8474;SDS011;4274;52.012;8.448;2023-12-20T08:15:51;50.63;;;5.73;;
8474;SDS011;4274;52.012;8.448;2023-12-20T08:18:17;61.57;;;5.80;;
8474;SDS011;4274;52.012;8.448;2023-12-20T08:20:42;45.10;;;5.13;;
8474;SDS011;4274;52.012;8.448;2023-12-20T08:23:08;50.00;;;5.97;;
8474;SDS011;4274;52.012;8.448;2023-12-20T08:25:33;58.10;;;4.73;;
8474;SDS011;4274;52.012;8.448;2023-12-20T08:27:59;45.23;;;5.60;;
8474;SDS011;4274;52.012;8.448;2023-12-20T08:30:24;50.30;;;5.60;;
8474;SDS011;4274;52.012;8.448;2023-12-20T08:32:50;45.30;;;5.90;;
8474;SDS011;4274;52.012;8.448;2023-12-20T08:35:16;52.97;;;5.80;;
8474;SDS011;4274;52.012;8.448;2023-12-20T08:37:42;50.63;;;6.73;;
8474;SDS011;4274;52.012;8.448;2023-12-20T08:40:08;51.53;;;6.07;;
8474;SDS011;4274;52.012;8.448;2023-12-20T08:42:34;55.63;;;6.40;;
8474;SDS011;4274;52.012;8.448;2023-12-20T08:45:00;47.87;;;5.83;;
8474;SDS011;4274;52.012;8.448;2023-12-20T08:47:25;46.80;;;5.90;;
8474;SDS011;4274;52.012;8.448;2023-12-20T08:49:51;50.03;;;5.90;;
8474;SDS011;4274;52.012;8.448;2023-12-20T08:52:21;48.63;;;6.13;;
8474;SDS011;4274;52.012;8.448;2023-12-20T08:54:48;58.03;;;6.80;;
8474;SDS011;4274;52.012;8.448;2023-12-20T08:57:14;46.53;;;6.63;;
8474;SDS011;4274;52.012;8.448;2023-12-20T08:59:39;57.13;;;7.43;;
8474;SDS011;4274;52.012;8.448;2023-12-20T09:02:05;48.60;;;6.60;;
8474;SDS011;4274;52.012;8.448;2023-12-20T09:04:30;43.83;;;6.27;;
8474;SDS011;4274;52.012;8.448;2023-12-20T09:06:56;52.40;;;6.10;;
8474;SDS011;4274;52.012;8.448;2023-12-20T09:09:24;47.77;;;6.43;;
8474;SDS011;4274;52.012;8.448;2023-12-20T09:11:50;46.80;;;6.60;;
8474;SDS011;4274;52.012;8.448;2023-12-20T09:14:16;50.03;;;6.73;;
8474;SDS011;4274;52.012;8.448;2023-12-20T09:16:42;46.07;;;6.80;;
8474;SDS011;4274;52.012;8.448;2023-12-20T09:19:07;62.40;;;7.53;;
8474;SDS011;4274;52.012;8.448;2023-12-20T09:21:33;49.73;;;7.47;;
8474;SDS011;4274;52.012;8.448;2023-12-20T09:23:58;50.60;;;6.97;;
8474;SDS011;4274;52.012;8.448;2023-12-20T09:26:24;54.30;;;7.30;;
8474;SDS011;4274;52.012;8.448;2023-12-20T09:28:49;53.30;;;6.80;;
8474;SDS011;4274;52.012;8.448;2023-12-20T09:31:15;49.90;;;6.40;;
8474;SDS011;4274;52.012;8.448;2023-12-20T09:33:41;61.57;;;7.70;;
8474;SDS011;4274;52.012;8.448;2023-12-20T09:36:06;51.37;;;6.67;;
8474;SDS011;4274;52.012;8.448;2023-12-20T09:38:32;48.40;;;6.63;;
8474;SDS011;4274;52.012;8.448;2023-12-20T09:40:58;53.63;;;8.53;;
8474;SDS011;4274;52.012;8.448;2023-12-20T09:43:24;55.20;;;7.87;;
8474;SDS011;4274;52.012;8.448;2023-12-20T09:45:52;49.80;;;7.27;;
8474;SDS011;4274;52.012;8.448;2023-12-20T09:48:19;56.93;;;6.60;;
8474;SDS011;4274;52.012;8.448;2023-12-20T09:50:45;58.03;;;7.53;;
8474;SDS011;4274;52.012;8.448;2023-12-20T09:53:12;56.33;;;7.57;;
8474;SDS011;4274;52.012;8.448;2023-12-20T09:55:41;55.33;;;7.80;;
8474;SDS011;4274;52.012;8.448;2023-12-20T09:58:07;46.77;;;7.23;;
8474;SDS011;4274;52.012;8.448;2023-12-20T10:00:34;48.30;;;7.63;;
8474;SDS011;4274;52.012;8.448;2023-12-20T10:03:00;56.57;;;7.23;;
8474;SDS011;4274;52.012;8.448;2023-12-20T10:05:30;47.90;;;6.30;;
8474;SDS011;4274;52.012;8.448;2023-12-20T10:07:57;55.87;;;6.30;;
8474;SDS011;4274;52.012;8.448;2023-12-20T10:10:24;49.13;;;6.03;;
8474;SDS011;4274;52.012;8.448;2023-12-20T10:13:06;59.67;;;6.33;;
8474;SDS011;4274;52.012;8.448;2023-12-20T10:15:33;48.60;;;6.60;;
8474;SDS011;4274;52.012;8.448;2023-12-20T10:17:59;48.43;;;6.53;;
8474;SDS011;4274;52.012;8.448;2023-12-20T10:20:26;46.47;;;6.10;;
8474;SDS011;4274;52.012;8.448;2023-12-20T10:22:53;65.27;;;6.80;;
8474;SDS011;4274;52.012;8.448;2023-12-20T10:25:20;47.13;;;5.87;;
8474;SDS011;4274;52.012;8.448;2023-12-20T10:27:46;49.47;;;6.50;;
8474;SDS011;4274;52.012;8.448;2023-12-20T10:30:12;48.03;;;5.33;;
8474;SDS011;4274;52.012;8.448;2023-12-20T10:32:39;51.53;;;6.73;;
8474;SDS011;4274;52.012;8.448;2023-12-20T10:35:05;52.03;;;6.47;;
8474;SDS011;4274;52.012;8.448;2023-12-20T10:37:31;65.87;;;7.97;;
8474;SDS011;4274;52.012;8.448;2023-12-20T10:40:01;58.93;;;7.10;;
8474;SDS011;4274;52.012;8.448;2023-12-20T10:42:30;59.13;;;10.23;;
8474;SDS011;4274;52.012;8.448;2023-12-20T10:44:58;56.53;;;8.23;;
8474;SDS011;4274;52.012;8.448;2023-12-20T10:47:25;50.47;;;7.43;;
8474;SDS011;4274;52.012;8.448;2023-12-20T10:49:52;47.80;;;6.30;;
8474;SDS011;4274;52.012;8.448;2023-12-20T10:52:18;50.97;;;6.40;;
8474;SDS011;4274;52.012;8.448;2023-12-20T10:54:47;48.17;;;5.73;;
8474;SDS011;4274;52.012;8.448;2023-12-20T10:57:13;55.73;;;7.10;;
8474;SDS011;4274;52.012;8.448;2023-12-20T10:59:41;48.33;;;5.70;;
8474;SDS011;4274;52.012;8.448;2023-12-20T11:02:10;55.10;;;7.03;;
8474;SDS011;4274;52.012;8.448;2023-12-20T11:07:31;50.63;;;5.40;;
8474;SDS011;4274;52.012;8.448;2023-12-20T11:10:00;61.87;;;5.73;;
8474;SDS011;4274;52.012;8.448;2023-12-20T11:12:49;53.20;;;5.90;;
8474;SDS011;4274;52.012;8.448;2023-12-20T11:15:19;54.17;;;5.95;;
8474;SDS011;4274;52.012;8.448;2023-12-20T11:17:46;51.13;;;5.60;;
8474;SDS011;4274;52.012;8.448;2023-12-20T11:20:20;52.17;;;6.40;;
8474;SDS011;4274;52.012;8.448;2023-12-20T11:22:52;52.13;;;5.00;;
8474;SDS011;4274;52.012;8.448;2023-12-20T11:25:19;56.80;;;5.30;;
8474;SDS011;4274;52.012;8.448;2023-12-20T11:27:47;54.23;;;6.87;;
8474;SDS011;4274;52.012;8.448;2023-12-20T11:33:25;47.30;;;5.17;;
8474;SDS011;4274;52.012;8.448;2023-12-20T11:35:54;54.60;;;6.13;;
8474;SDS011;4274;52.012;8.448;2023-12-20T11:38:21;43.67;;;4.63;;
8474;SDS011;4274;52.012;8.448;2023-12-20T11:40:50;51.63;;;6.03;;
8474;SDS011;4274;52.012;8.448;2023-12-20T11:43:29;46.30;;;5.10;;
8474;SDS011;4274;52.012;8.448;2023-12-20T11:46:04;49.83;;;4.90;;
8474;SDS011;4274;52.012;8.448;2023-12-20T11:48:38;52.50;;;6.03;;
8474;SDS011;4274;52.012;8.448;2023-12-20T11:51:11;50.07;;;6.67;;
8474;SDS011;4274;52.012;8.448;2023-12-20T11:53:38;47.97;;;6.60;;
8474;SDS011;4274;52.012;8.448;2023-12-20T11:56:05;47.73;;;4.77;;
8474;SDS011;4274;52.012;8.448;2023-12-20T11:58:32;46.93;;;5.17;;
8474;SDS011;4274;52.012;8.448;2023-12-20T12:00:58;43.60;;;4.57;;
8474;SDS011;4274;52.012;8.448;2023-12-20T12:03:24;47.73;;;5.10;;
8474;SDS011;4274;52.012;8.448;2023-12-20T12:05:49;49.03;;;5.70;;
8474;SDS011;4274;52.012;8.448;2023-12-20T12:08:15;51.00;;;4.90;;
8474;SDS011;4274;52.012;8.448;2023-12-20T12:10:42;52.87;;;4.83;;
8474;SDS011;4274;52.012;8.448;2023-12-20T12:13:09;49.73;;;4.40;;
8474;SDS011;4274;52.012;8.448;2023-12-20T12:15:35;49.30;;;4.27;;
8474;SDS011;4274;52.012;8.448;2023-12-20T12:18:01;43.47;;;4.07;;
8474;SDS011;4274;52.012;8.448;2023-12-20T12:20:27;51.03;;;4.30;;
8474;SDS011;4274;52.012;8.448;2023-12-20T12:23:03;42.67;;;4.00;;
8474;SDS011;4274;52.012;8.448;2023-12-20T12:25:30;52.87;;;4.47;;
8474;SDS011;4274;52.012;8.448;2023-12-20T12:27:57;46.73;;;3.97;;
8474;SDS011;4274;52.012;8.448;2023-12-20T12:30:23;47.67;;;4.83;;
8474;SDS011;4274;52.012;8.448;2023-12-20T12:32:50;50.90;;;4.60;;
8474;SDS011;4274;52.012;8.448;2023-12-20T12:35:17;40.77;;;4.00;;
8474;SDS011;4274;52.012;8.448;2023-12-20T12:37:43;46.87;;;4.57;;
8474;SDS011;4274;52.012;8.448;2023-12-20T12:40:16;53.63;;;4.50;;
8474;SDS011;4274;52.012;8.448;2023-12-20T12:42:43;48.63;;;4.67;;
8474;SDS011;4274;52.012;8.448;2023-12-20T12:45:09;47.30;;;5.10;;
8474;SDS011;4274;52.012;8.448;2023-12-20T12:47:39;56.90;;;5.17;;
8474;SDS011;4274;52.012;8.448;2023-12-20T12:50:05;44.10;;;4.57;;
8474;SDS011;4274;52.012;8.448;2023-12-20T12:52:30;46.93;;;4.90;;
8474;SDS011;4274;52.012;8.448;2023-12-20T12:54:56;57.60;;;5.00;;
8474;SDS011;4274;52.012;8.448;2023-12-20T12:57:22;56.33;;;5.50;;
8474;SDS011;4274;52.012;8.448;2023-12-20T12:59:48;45.77;;;5.07;;
8474;SDS011;4274;52.012;8.448;2023-12-20T13:02:14;57.27;;;5.10;;
8474;SDS011;4274;52.012;8.448;2023-12-20T13:04:40;53.83;;;5.00;;
8474;SDS011;4274;52.012;8.448;2023-12-20T13:07:07;52.23;;;5.17;;
8474;SDS011;4274;52.012;8.448;2023-12-20T13:09:35;45.97;;;5.13;;
8474;SDS011;4274;52.012;8.448;2023-12-20T13:12:01;48.50;;;5.07;;
8474;SDS011;4274;52.012;8.448;2023-12-20T13:14:28;56.03;;;4.77;;
8474;SDS011;4274;52.012;8.448;2023-12-20T13:16:54;48.30;;;4.30;;
8474;SDS011;4274;52.012;8.448;2023-12-20T13:19:21;47.53;;;4.80;;
8474;SDS011;4274;52.012;8.448;2023-12-20T13:21:46;44.30;;;3.57;;
8474;SDS011;4274;52.012;8.448;2023-12-20T13:24:12;47.30;;;3.60;;
8474;SDS011;4274;52.012;8.448;2023-12-20T13:26:37;40.30;;;3.10;;
8474;SDS011;4274;52.012;8.448;2023-12-20T13:29:03;42.40;;;3.67;;
8474;SDS011;4274;52.012;8.448;2023-12-20T13:31:28;39.57;;;2.60;;
8474;SDS011;4274;52.012;8.448;2023-12-20T13:33:54;40.13;;;3.10;;
8474;SDS011;4274;52.012;8.448;2023-12-20T13:36:19;40.00;;;2.97;;
8474;SDS011;4274;52.012;8.448;2023-12-20T13:38:45;43.57;;;3.10;;
8474;SDS011;4274;52.012;8.448;2023-12-20T13:41:10;42.50;;;3.10;;
8474;SDS011;4274;52.012;8.448;2023-12-20T13:43:36;42.73;;;2.70;;
8474;SDS011;4274;52.012;8.448;2023-12-20T13:46:01;38.30;;;3.00;;
8474;SDS011;4274;52.012;8.448;2023-12-20T13:48:27;45.93;;;2.83;;
8474;SDS011;4274;52.012;8.448;2023-12-20T13:50:52;41.73;;;3.10;;
8474;SDS011;4274;52.012;8.448;2023-12-20T13:53:19;40.20;;;3.00;;
8474;SDS011;4274;52.012;8.448;2023-12-20T13:55:45;40.17;;;2.97;;
8474;SDS011;4274;52.012;8.448;2023-12-20T13:58:10;38.60;;;2.30;;
8474;SDS011;4274;52.012;8.448;2023-12-20T14:00:36;40.80;;;2.90;;
8474;SDS011;4274;52.012;8.448;2023-12-20T14:03:05;39.47;;;3.67;;
8474;SDS011;4274;52.012;8.448;2023-12-20T14:05:32;37.00;;;2.57;;
8474;SDS011;4274;52.012;8.448;2023-12-20T14:07:58;46.60;;;2.80;;
8474;SDS011;4274;52.012;8.448;2023-12-20T14:10:24;46.20;;;2.87;;
8474;SDS011;4274;52.012;8.448;2023-12-20T14:12:51;38.67;;;2.90;;
8474;SDS011;4274;52.012;8.448;2023-12-20T14:15:17;44.37;;;2.60;;
8474;SDS011;4274;52.012;8.448;2023-12-20T14:17:43;38.90;;;2.80;;
8474;SDS011;4274;52.012;8.448;2023-12-20T14:20:08;39.93;;;2.83;;
8474;SDS011;4274;52.012;8.448;2023-12-20T14:22:35;39.17;;;3.10;;
8474;SDS011;4274;52.012;8.448;2023-12-20T14:25:01;39.90;;;2.47;;
8474;SDS011;4274;52.012;8.448;2023-12-20T14:27:27;40.53;;;3.67;;
8474;SDS011;4274;52.012;8.448;2023-12-20T14:29:53;40.23;;;3.00;;
8474;SDS011;4274;52.012;8.448;2023-12-20T14:32:19;42.90;;;2.93;;
8474;SDS011;4274;52.012;8.448;2023-12-20T14:34:45;45.73;;;3.10;;
8474;SDS011;4274;52.012;8.448;2023-12-20T14:37:11;42.87;;;3.80;;
8474;SDS011;4274;52.012;8.448;2023-12-20T14:39:37;43.33;;;3.22;;
8474;SDS011;4274;52.012;8.448;2023-12-20T14:42:09;44.73;;;3.87;;
8474;SDS011;4274;52.012;8.448;2023-12-20T14:44:37;44.33;;;3.70;;
8474;SDS011;4274;52.012;8.448;2023-12-20T14:47:03;42.67;;;3.50;;
8474;SDS011;4274;52.012;8.448;2023-12-20T14:49:30;38.27;;;3.13;;
8474;SDS011;4274;52.012;8.448;2023-12-20T14:51:55;43.60;;;3.70;;
8474;SDS011;4274;52.012;8.448;2023-12-20T14:54:21;40.90;;;3.40;;
8474;SDS011;4274;52.012;8.448;2023-12-20T14:56:47;41.97;;;3.30;;
8474;SDS011;4274;52.012;8.448;2023-12-20T14:59:13;42.27;;;3.13;;
8474;SDS011;4274;52.012;8.448;2023-12-20T15:01:38;43.93;;;2.57;;